Maria — SV7156 — position and weather

sailwx.info

Track history (hours):
 
Tides and Currents Weather Stations Pressure Air Temp Water Temp Dewpoint Dewpoint Depression Visibility Wind Speed Wind Dir Waves Ship Positions

Maria

Last reported at 2016-May-02 15:33 UTC. Time now 2016-May-03 16:20 UTC.
Position N 37°58' E 023°33'.

Length 74 m; draft 4.5 m.

Type: Ship. MMSI: 237493000.

Date/timePositionNaut miles runAvg speedWind from/ knotsBaromVisibWave heightAir tempDewpointWater temp
2016-May-02 15:33N 37°58' E 023°33'5 4.5
2016-May-02 14:33N 38°03' E 023°32'0 0.0
2016-May-02 13:33N 38°03' E 023°32'0 0.0
2016-May-02 12:33N 38°03' E 023°32'5 5.2
2016-May-02 11:33N 37°57' E 023°33'2 1.9
2016-May-02 10:33N 37°57' E 023°36'0 0.0
2016-May-02 09:33N 37°57' E 023°36'0 0.0
2016-May-02 08:33N 37°57' E 023°36'0 0.0
2016-May-02 07:33N 37°57' E 023°36'0 0.0
2016-May-02 06:33N 37°57' E 023°36'  
2016-Apr-29 17:33N 37°57' E 023°34'4 4.4
2016-Apr-29 16:33N 38°02' E 023°36'0 0.1
2016-Apr-29 15:33N 38°02' E 023°36'0 0.0
2016-Apr-29 14:33N 38°02' E 023°36'0 0.0
2016-Apr-29 13:33N 38°02' E 023°36'0 0.0
2016-Apr-29 12:33N 38°02' E 023°36'0 0.0
2016-Apr-29 11:33N 38°02' E 023°36'0 0.0
2016-Apr-29 10:33N 38°02' E 023°36'0 0.0
2016-Apr-29 09:33N 38°02' E 023°36'1 0.8
2016-Apr-29 08:33N 38°02' E 023°35'0 0.0
2016-Apr-29 07:33N 38°02' E 023°35'0 0.1
2016-Apr-29 06:33N 38°02' E 023°35'0 0.0
2016-Apr-29 05:33N 38°02' E 023°35'0 0.0
2016-Apr-29 04:33N 38°02' E 023°35'0 0.0
2016-Apr-29 03:33N 38°02' E 023°35'0 0.0
2016-Apr-29 02:33N 38°02' E 023°35'0 0.0
2016-Apr-29 01:33N 38°02' E 023°35'0 0.0
2016-Apr-29 00:33N 38°02' E 023°35'4 3.7
2016-Apr-28 23:33N 38°01' E 023°30'7 7.1
2016-Apr-28 22:33N 37°56' E 023°24'6 6.2
2016-Apr-28 21:33N 37°53' E 023°30'2 1.5
2016-Apr-28 20:33N 37°54' E 023°32'0 0.0
2016-Apr-28 19:33N 37°54' E 023°32'1 1.3
2016-Apr-28 18:33N 37°53' E 023°33'0 0.0
2016-Apr-28 17:33N 37°53' E 023°33'2 1.6
2016-Apr-28 16:33N 37°52' E 023°31'0 0.0
2016-Apr-28 15:33N 37°52' E 023°31'0 0.0
2016-Apr-28 14:33N 37°52' E 023°31'0 0.0
2016-Apr-28 13:33N 37°52' E 023°31'0 0.5
2016-Apr-28 12:33N 37°52' E 023°31'6 1.2
2016-Apr-28 07:31N 37°58' E 023°35'0 0.0
2016-Apr-27 22:08N 37°58' E 023°35'4 6.6
2016-Apr-27 21:33N 37°54' E 023°34'1 1.5
2016-Apr-27 20:33N 37°53' E 023°32'0 0.0
2016-Apr-27 19:33N 37°53' E 023°32'0 0.0
2016-Apr-27 18:33N 37°53' E 023°32'3 3.5
2016-Apr-27 17:33N 37°55' E 023°35'3 2.5
2016-Apr-27 16:33N 37°56' E 023°38'0 0.0
2016-Apr-27 15:33N 37°56' E 023°38'0 0.0
2016-Apr-27 14:33N 37°56' E 023°38'0 0.0
2016-Apr-27 13:33N 37°56' E 023°38'0 0.0
2016-Apr-27 12:33N 37°56' E 023°38'0 0.0
2016-Apr-27 11:28N 37°56' E 023°38'0 0.0
2016-Apr-27 10:33N 37°56' E 023°38'0 0.0
2016-Apr-27 09:32N 37°56' E 023°38'0 0.0
2016-Apr-27 08:33N 37°56' E 023°38'0 0.0
2016-Apr-27 07:33N 37°56' E 023°38'1 0.7
2016-Apr-27 06:34N 37°56' E 023°37'3 0.1
2016-Apr-26 09:33N 37°58' E 023°35'0 0.1
2016-Apr-26 08:33N 37°58' E 023°35'0 0.0
2016-Apr-26 07:33N 37°58' E 023°35'0 0.4
2016-Apr-26 06:33N 37°57' E 023°34'4 4.6
2016-Apr-26 05:33N 38°02' E 023°34'0 0.0
2016-Apr-26 04:33N 38°02' E 023°35'0 0.0
2016-Apr-26 03:34N 38°02' E 023°35'0 0.0
2016-Apr-26 02:33N 38°02' E 023°35'0 0.0
2016-Apr-26 01:33N 38°02' E 023°35'0 0.0
2016-Apr-26 00:33N 38°02' E 023°34'0 0.0
2016-Apr-25 23:34N 38°02' E 023°34'0 0.0
2016-Apr-25 22:33N 38°02' E 023°34'0 0.0
2016-Apr-25 21:33N 38°02' E 023°34'0 0.0
2016-Apr-25 20:34N 38°02' E 023°34'0 0.0
2016-Apr-25 19:33N 38°02' E 023°34'0 0.0
2016-Apr-25 18:33N 38°02' E 023°34'1 0.9
2016-Apr-25 17:34N 38°02' E 023°36'0 0.0
2016-Apr-25 16:34N 38°02' E 023°36'0 0.0
2016-Apr-25 15:33N 38°02' E 023°36'0 0.0
2016-Apr-25 14:33N 38°02' E 023°36'0 0.0
2016-Apr-25 13:33N 38°02' E 023°36'1 0.6
2016-Apr-25 12:33N 38°02' E 023°35'0 0.0
2016-Apr-25 11:33N 38°02' E 023°35'0 0.3
2016-Apr-25 10:34N 38°02' E 023°35'4 0.1
2016-Apr-23 21:09N 37°58' E 023°35'3 5.4
2016-Apr-23 20:33N 37°55' E 023°33'0 0.1
2016-Apr-23 19:33N 37°55' E 023°33'0 0.0
2016-Apr-23 18:33N 37°55' E 023°34'0 0.0
2016-Apr-23 17:33N 37°55' E 023°34'0 0.0
2016-Apr-23 16:33N 37°55' E 023°34'0 0.0
2016-Apr-23 15:32N 37°55' E 023°34'0 0.0
2016-Apr-23 14:33N 37°55' E 023°34'1 1.3
2016-Apr-23 13:33N 37°56' E 023°35'3 2.8
2016-Apr-23 12:33N 37°56' E 023°38'0 0.0
2016-Apr-23 11:33N 37°56' E 023°38'0 0.0
2016-Apr-23 10:33N 37°56' E 023°38'0 0.0
2016-Apr-23 09:33N 37°56' E 023°38'0 0.0
2016-Apr-23 08:32N 37°56' E 023°38'1 1.4
2016-Apr-23 07:33N 37°57' E 023°36'2 0.1
2016-Apr-22 17:09N 37°58' E 023°35'2 4.2
2016-Apr-22 16:33N 37°60' E 023°33'  
Track history (hours):
 
Tides and Currents Weather Stations Pressure Air Temp Water Temp Dewpoint Dewpoint Depression Visibility Wind Speed Wind Dir Waves Ship Positions

Maria

Last reported at 2016-May-02 15:33 UTC. Time now 2016-May-03 16:20 UTC.
Position N 37°58' E 023°33'.

Length 74 m; draft 4.5 m.

Type: Ship. MMSI: 237493000.

Date/timePositionNaut miles runAvg speedWind from/ knotsBaromVisibWave heightAir tempDewpointWater temp
2016-May-02 15:33N 37°58' E 023°33'5 4.5
2016-May-02 14:33N 38°03' E 023°32'0 0.0
2016-May-02 13:33N 38°03' E 023°32'0 0.0
2016-May-02 12:33N 38°03' E 023°32'5 5.2
2016-May-02 11:33N 37°57' E 023°33'2 1.9
2016-May-02 10:33N 37°57' E 023°36'0 0.0
2016-May-02 09:33N 37°57' E 023°36'0 0.0
2016-May-02 08:33N 37°57' E 023°36'0 0.0
2016-May-02 07:33N 37°57' E 023°36'0 0.0
2016-May-02 06:33N 37°57' E 023°36'  
2016-Apr-29 17:33N 37°57' E 023°34'4 4.4
2016-Apr-29 16:33N 38°02' E 023°36'0 0.1
2016-Apr-29 15:33N 38°02' E 023°36'0 0.0
2016-Apr-29 14:33N 38°02' E 023°36'0 0.0
2016-Apr-29 13:33N 38°02' E 023°36'0 0.0
2016-Apr-29 12:33N 38°02' E 023°36'0 0.0
2016-Apr-29 11:33N 38°02' E 023°36'0 0.0
2016-Apr-29 10:33N 38°02' E 023°36'0 0.0
2016-Apr-29 09:33N 38°02' E 023°36'1 0.8
2016-Apr-29 08:33N 38°02' E 023°35'0 0.0
2016-Apr-29 07:33N 38°02' E 023°35'0 0.1
2016-Apr-29 06:33N 38°02' E 023°35'0 0.0
2016-Apr-29 05:33N 38°02' E 023°35'0 0.0
2016-Apr-29 04:33N 38°02' E 023°35'0 0.0
2016-Apr-29 03:33N 38°02' E 023°35'0 0.0
2016-Apr-29 02:33N 38°02' E 023°35'0 0.0
2016-Apr-29 01:33N 38°02' E 023°35'0 0.0
2016-Apr-29 00:33N 38°02' E 023°35'4 3.7
2016-Apr-28 23:33N 38°01' E 023°30'7 7.1
2016-Apr-28 22:33N 37°56' E 023°24'6 6.2
2016-Apr-28 21:33N 37°53' E 023°30'2 1.5
2016-Apr-28 20:33N 37°54' E 023°32'0 0.0
2016-Apr-28 19:33N 37°54' E 023°32'1 1.3
2016-Apr-28 18:33N 37°53' E 023°33'0 0.0
2016-Apr-28 17:33N 37°53' E 023°33'2 1.6
2016-Apr-28 16:33N 37°52' E 023°31'0 0.0
2016-Apr-28 15:33N 37°52' E 023°31'0 0.0
2016-Apr-28 14:33N 37°52' E 023°31'0 0.0
2016-Apr-28 13:33N 37°52' E 023°31'0 0.5
2016-Apr-28 12:33N 37°52' E 023°31'6 1.2
2016-Apr-28 07:31N 37°58' E 023°35'0 0.0
2016-Apr-27 22:08N 37°58' E 023°35'4 6.6
2016-Apr-27 21:33N 37°54' E 023°34'1 1.5
2016-Apr-27 20:33N 37°53' E 023°32'0 0.0
2016-Apr-27 19:33N 37°53' E 023°32'0 0.0
2016-Apr-27 18:33N 37°53' E 023°32'3 3.5
2016-Apr-27 17:33N 37°55' E 023°35'3 2.5
2016-Apr-27 16:33N 37°56' E 023°38'0 0.0
2016-Apr-27 15:33N 37°56' E 023°38'0 0.0
2016-Apr-27 14:33N 37°56' E 023°38'0 0.0
2016-Apr-27 13:33N 37°56' E 023°38'0 0.0
2016-Apr-27 12:33N 37°56' E 023°38'0 0.0
2016-Apr-27 11:28N 37°56' E 023°38'0 0.0
2016-Apr-27 10:33N 37°56' E 023°38'0 0.0
2016-Apr-27 09:32N 37°56' E 023°38'0 0.0
2016-Apr-27 08:33N 37°56' E 023°38'0 0.0
2016-Apr-27 07:33N 37°56' E 023°38'1 0.7
2016-Apr-27 06:34N 37°56' E 023°37'3 0.1
2016-Apr-26 09:33N 37°58' E 023°35'0 0.1
2016-Apr-26 08:33N 37°58' E 023°35'0 0.0
2016-Apr-26 07:33N 37°58' E 023°35'0 0.4
2016-Apr-26 06:33N 37°57' E 023°34'4 4.6
2016-Apr-26 05:33N 38°02' E 023°34'0 0.0
2016-Apr-26 04:33N 38°02' E 023°35'0 0.0
2016-Apr-26 03:34N 38°02' E 023°35'0 0.0
2016-Apr-26 02:33N 38°02' E 023°35'0 0.0
2016-Apr-26 01:33N 38°02' E 023°35'0 0.0
2016-Apr-26 00:33N 38°02' E 023°34'0 0.0
2016-Apr-25 23:34N 38°02' E 023°34'0 0.0
2016-Apr-25 22:33N 38°02' E 023°34'0 0.0
2016-Apr-25 21:33N 38°02' E 023°34'0 0.0
2016-Apr-25 20:34N 38°02' E 023°34'0 0.0
2016-Apr-25 19:33N 38°02' E 023°34'0 0.0
2016-Apr-25 18:33N 38°02' E 023°34'1 0.9
2016-Apr-25 17:34N 38°02' E 023°36'0 0.0
2016-Apr-25 16:34N 38°02' E 023°36'0 0.0
2016-Apr-25 15:33N 38°02' E 023°36'0 0.0
2016-Apr-25 14:33N 38°02' E 023°36'0 0.0
2016-Apr-25 13:33N 38°02' E 023°36'1 0.6
2016-Apr-25 12:33N 38°02' E 023°35'0 0.0
2016-Apr-25 11:33N 38°02' E 023°35'0 0.3
2016-Apr-25 10:34N 38°02' E 023°35'4 0.1
2016-Apr-23 21:09N 37°58' E 023°35'3 5.4
2016-Apr-23 20:33N 37°55' E 023°33'0 0.1
2016-Apr-23 19:33N 37°55' E 023°33'0 0.0
2016-Apr-23 18:33N 37°55' E 023°34'0 0.0
2016-Apr-23 17:33N 37°55' E 023°34'0 0.0
2016-Apr-23 16:33N 37°55' E 023°34'0 0.0
2016-Apr-23 15:32N 37°55' E 023°34'0 0.0
2016-Apr-23 14:33N 37°55' E 023°34'1 1.3
2016-Apr-23 13:33N 37°56' E 023°35'3 2.8
2016-Apr-23 12:33N 37°56' E 023°38'0 0.0
2016-Apr-23 11:33N 37°56' E 023°38'0 0.0
2016-Apr-23 10:33N 37°56' E 023°38'0 0.0
2016-Apr-23 09:33N 37°56' E 023°38'0 0.0
2016-Apr-23 08:32N 37°56' E 023°38'1 1.4
2016-Apr-23 07:33N 37°57' E 023°36'2 0.1
2016-Apr-22 17:09N 37°58' E 023°35'2 4.2
2016-Apr-22 16:33N 37°60' E 023°33'  

Dump ship's entire track history